< Cyclone 196813 1968 Season Cyclone 196815 >
Cyclone 196814 (GINA)
General InformationTrack Information on Google Maps || ResourceGoogle EarthGE AnimationAtom FeedGeoJSON
Detalied Best Track (Time Zone = UTC)
Year Month Day Hour Lat. Long. Pressure (hPa) Wind (kt) Class Image Chart
1968 2 13 01 -14.9 122.1 999 0 0 -- --
1968 2 14 01 -15.1 116.8 996 0 0 -- --
1968 2 14 12 -15.2 114.3 995 0 0 -- --
1968 2 14 16 -15.2 113.5 995 0 0 -- --
1968 2 15 01 -15.3 111.3 995 0 0 -- --
1968 2 16 01 -15.9 106.7 995 0 0 -- --
1968 2 17 06 -16.0 99.9 995 0 0 -- --
1968 2 17 12 -16.3 99.9 995 0 0 -- --
1968 2 17 18 -16.6 99.8 995 0 0 -- --
1968 2 18 00 -16.8 99.8 995 0 0 -- --
1968 2 18 06 -17.0 99.4 995 0 0 -- --
1968 2 18 12 -17.4 98.5 995 0 0 -- --
1968 2 18 18 -17.9 97.3 995 0 0 -- --
1968 2 19 00 -18.3 96.1 995 0 0 -- --
1968 2 19 06 -18.6 95.0 995 0 0 -- --
1968 2 19 12 -18.8 94.1 995 0 0 -- --
1968 2 19 18 -19.0 93.2 995 0 0 -- --
1968 2 20 00 -19.1 92.5 995 0 0 -- --
1968 2 20 06 -19.1 91.7 995 0 0 -- --
1968 2 20 12 -18.9 90.4 995 0 0 -- --
1968 2 20 18 -18.6 89.0 995 0 0 -- --
1968 2 21 00 -18.4 87.4 995 0 0 -- --
1968 2 21 06 -18.1 86.0 995 0 0 -- --
1968 2 21 12 -18.0 85.2 995 0 0 -- --
1968 2 21 18 -18.0 84.5 995 0 0 -- --
1968 2 22 00 -18.0 83.7 995 0 0 -- --
1968 2 22 06 -18.1 82.9 995 0 0 -- --
1968 2 22 12 -18.6 81.4 995 0 0 -- --
1968 2 22 18 -19.4 79.6 995 0 0 -- --
1968 2 23 00 -20.3 78.1 995 0 0 -- --
1968 2 23 06 -21.1 76.9 995 0 0 -- --
1968 2 23 12 -21.8 76.2 995 0 0 -- --
1968 2 23 18 -22.4 75.6 995 0 0 -- --
1968 2 24 00 -23.2 75.0 995 0 0 -- --
1968 2 24 06 -24.1 74.4 995 0 0 -- --
1968 2 24 12 -25.2 73.8 995 0 0 -- --
1968 2 24 18 -26.4 73.2 995 0 0 -- --
1968 2 25 00 -27.8 72.7 995 0 0 -- --
1968 2 25 06 -29.2 72.9 995 0 0 -- --
1968 2 25 12 -30.2 73.9 995 0 0 -- --
1968 2 25 18 -30.9 75.0 995 0 0 -- --
1968 2 26 00 -31.6 76.0 995 0 0 -- --
1968 2 26 06 -32.1 76.9 995 0 0 -- --
< Cyclone 196813 1968 Season Cyclone 196815 >

Help